Time;durP1;ratioP1;P1;durP2;ratioP2;P2;SDS_P1;SDS_P2;PMS_P1;PMS_P2;Temp;Humidity;BMP_temperature;BMP_pressure;BME280_temperature;BME280_humidity;BME280_pressure;Samples;Min_cycle;Max_cycle;Signal;HPM_P1;HPM_P2
2022/03/07 00:01:14;;;;;;;12.63;9.00;;;;;;;;;;5061187;28;20033;-70
2022/03/07 00:04:02;;;;;;;12.70;8.73;;;;;;;;;;5057876;28;20114;-73
2022/03/07 00:06:47;;;;;;;15.10;9.18;;;;;;;;;;5059879;28;20115;-70
2022/03/07 00:09:32;;;;;;;13.55;8.93;;;;;;;;;;5064449;28;20024;-70
2022/03/07 00:12:18;;;;;;;14.63;9.15;;;;;;;;;;5062011;28;20040;-71
2022/03/07 00:15:03;;;;;;;13.70;9.25;;;;;;;;;;5041692;28;20032;-70
2022/03/07 00:17:48;;;;;;;15.18;8.85;;;;;;;;;;5054632;28;20379;-65
2022/03/07 00:20:34;;;;;;;13.25;8.70;;;;;;;;;;5072922;28;20023;-63
2022/03/07 00:23:19;;;;;;;12.63;8.43;;;;;;;;;;5054963;28;20504;-63
2022/03/07 00:26:05;;;;;;;13.32;9.27;;;;;;;;;;5059895;28;20075;-64
2022/03/07 00:28:50;;;;;;;13.00;9.43;;;;;;;;;;5038577;28;20050;-62
2022/03/07 00:31:35;;;;;;;11.93;8.48;;;;;;;;;;5066441;28;20028;-64
2022/03/07 00:34:21;;;;;;;13.50;9.20;;;;;;;;;;5055867;28;20036;-61
2022/03/07 00:37:06;;;;;;;17.13;8.02;;;;;;;;;;5070099;28;20035;-65
2022/03/07 00:39:52;;;;;;;13.73;8.85;;;;;;;;;;5057769;28;20331;-68
2022/03/07 00:42:38;;;;;;;12.95;8.73;;;;;;;;;;5074031;28;20115;-68
2022/03/07 00:45:23;;;;;;;13.32;8.60;;;;;;;;;;5052999;28;20029;-66
2022/03/07 00:48:08;;;;;;;10.40;7.65;;;;;;;;;;5064782;28;20115;-68
2022/03/07 00:50:54;;;;;;;12.35;8.38;;;;;;;;;;5063786;28;20417;-66
2022/03/07 00:53:39;;;;;;;14.25;8.23;;;;;;;;;;5066113;28;20020;-62
2022/03/07 00:56:24;;;;;;;12.32;8.65;;;;;;;;;;5058478;28;20510;-62
2022/03/07 00:59:09;;;;;;;11.90;7.68;;;;;;;;;;5040274;28;20506;-64
2022/03/07 01:01:54;;;;;;;12.52;8.10;;;;;;;;;;5048259;28;20032;-64
2022/03/07 01:04:40;;;;;;;12.43;7.32;;;;;;;;;;5055803;28;20107;-61
2022/03/07 01:07:25;;;;;;;12.40;7.85;;;;;;;;;;5067869;28;20475;-62
2022/03/07 01:10:10;;;;;;;12.00;7.22;;;;;;;;;;5054795;28;20024;-71
2022/03/07 01:12:56;;;;;;;13.30;8.82;;;;;;;;;;5069025;28;20150;-60
2022/03/07 01:15:41;;;;;;;11.15;7.43;;;;;;;;;;5052598;28;20573;-61
2022/03/07 01:18:26;;;;;;;13.10;7.80;;;;;;;;;;5052051;28;20090;-61
2022/03/07 01:21:12;;;;;;;10.70;7.65;;;;;;;;;;5064433;28;20024;-61
2022/03/07 01:23:57;;;;;;;13.10;7.35;;;;;;;;;;5056081;28;20041;-62
2022/03/07 01:26:42;;;;;;;10.60;7.35;;;;;;;;;;5051064;28;20116;-61
2022/03/07 01:29:28;;;;;;;11.10;7.68;;;;;;;;;;5053621;28;20584;-63
2022/03/07 01:32:13;;;;;;;13.35;8.02;;;;;;;;;;5067605;28;20025;-65
2022/03/07 01:34:58;;;;;;;12.60;7.72;;;;;;;;;;5065445;28;20037;-67
2022/03/07 01:37:44;;;;;;;11.48;6.65;;;;;;;;;;5053058;28;20028;-66
2022/03/07 01:40:29;;;;;;;11.85;7.70;;;;;;;;;;5052693;28;20071;-68
2022/03/07 01:43:14;;;;;;;12.15;7.85;;;;;;;;;;5042996;28;20328;-67
2022/03/07 01:46:00;;;;;;;12.48;6.95;;;;;;;;;;5064328;28;20210;-66
2022/03/07 01:48:45;;;;;;;14.90;7.70;;;;;;;;;;5069953;28;20027;-67
2022/03/07 01:51:30;;;;;;;12.57;7.70;;;;;;;;;;5052455;28;20040;-67
2022/03/07 01:54:17;;;;;;;12.70;7.60;;;;;;;;;;5047699;28;20032;-66
2022/03/07 01:57:02;;;;;;;10.20;7.40;;;;;;;;;;5049305;28;20117;-67
2022/03/07 01:59:47;;;;;;;11.98;7.05;;;;;;;;;;5052752;28;20032;-67
2022/03/07 02:02:33;;;;;;;11.20;7.03;;;;;;;;;;5031982;28;20122;-65
2022/03/07 02:05:18;;;;;;;12.68;7.90;;;;;;;;;;5039062;28;20127;-73
2022/03/07 02:08:03;;;;;;;10.48;6.68;;;;;;;;;;5037357;28;20431;-71
2022/03/07 02:10:49;;;;;;;10.63;7.72;;;;;;;;;;5051393;28;20033;-71
2022/03/07 02:13:35;;;;;;;11.20;6.88;;;;;;;;;;5052247;28;20127;-69
2022/03/07 02:16:21;;;;;;;11.85;7.65;;;;;;;;;;5062357;28;20028;-70
2022/03/07 02:19:06;;;;;;;11.40;7.13;;;;;;;;;;5056537;28;20022;-70
2022/03/07 02:21:56;;;;;;;10.95;7.10;;;;;;;;;;5052627;28;20025;-63
2022/03/07 02:24:41;;;;;;;;;;;;;;;;;;5058445;28;20108;-66
2022/03/07 02:27:26;;;;;;;9.75;6.20;;;;;;;;;;5042014;28;19913;-61
2022/03/07 02:30:11;;;;;;;11.35;7.03;;;;;;;;;;5072057;28;20024;-61
2022/03/07 02:32:57;;;;;;;11.05;7.40;;;;;;;;;;5067993;28;20024;-61
2022/03/07 02:35:42;;;;;;;10.32;7.60;;;;;;;;;;5063319;28;20030;-61
2022/03/07 02:38:27;;;;;;;12.32;7.68;;;;;;;;;;5062121;28;20032;-61
2022/03/07 02:41:13;;;;;;;11.95;6.63;;;;;;;;;;5064335;28;20344;-69
2022/03/07 02:43:58;;;;;;;9.77;6.53;;;;;;;;;;5059350;28;20028;-60
2022/03/07 02:46:43;;;;;;;10.10;6.75;;;;;;;;;;5070280;28;20024;-63
2022/03/07 02:49:28;;;;;;;11.10;7.50;;;;;;;;;;5071215;28;20036;-62
2022/03/07 02:52:14;;;;;;;11.43;8.20;;;;;;;;;;5041459;28;20036;-61
2022/03/07 02:55:00;;;;;;;10.27;7.35;;;;;;;;;;5055552;28;20094;-64
2022/03/07 02:57:45;;;;;;;11.13;7.22;;;;;;;;;;5061409;28;20082;-61
2022/03/07 03:00:31;;;;;;;10.13;7.13;;;;;;;;;;5056916;28;20032;-61
2022/03/07 03:03:16;;;;;;;13.73;7.78;;;;;;;;;;5054329;28;20052;-68
2022/03/07 03:06:01;;;;;;;11.40;7.07;;;;;;;;;;5075119;28;20035;-68
2022/03/07 03:08:48;;;;;;;12.38;7.13;;;;;;;;;;5062839;28;20033;-68
2022/03/07 03:11:33;;;;;;;12.90;7.97;;;;;;;;;;5054692;28;20491;-68
2022/03/07 03:14:19;;;;;;;10.35;6.63;;;;;;;;;;5054394;28;20090;-68
2022/03/07 03:17:04;;;;;;;10.85;7.15;;;;;;;;;;5066186;28;20083;-70
2022/03/07 03:19:49;;;;;;;11.15;8.05;;;;;;;;;;5083650;28;20091;-62
2022/03/07 03:22:34;;;;;;;12.68;8.52;;;;;;;;;;5065208;28;20429;-71
2022/03/07 03:25:20;;;;;;;14.90;9.88;;;;;;;;;;5054257;28;20029;-72
2022/03/07 03:28:05;;;;;;;12.85;8.60;;;;;;;;;;5053367;28;20602;-74
2022/03/07 03:30:54;;;;;;;14.25;8.57;;;;;;;;;;5062779;28;20037;-72
2022/03/07 03:33:39;;;;;;;10.85;7.70;;;;;;;;;;5060212;28;20440;-72
2022/03/07 03:36:24;;;;;;;11.60;7.95;;;;;;;;;;5055155;28;20115;-68
2022/03/07 03:39:10;;;;;;;10.98;7.43;;;;;;;;;;5038626;28;20043;-64
2022/03/07 03:41:55;;;;;;;11.40;7.65;;;;;;;;;;5048017;28;20390;-64
2022/03/07 03:44:40;;;;;;;14.52;8.65;;;;;;;;;;5039507;28;20047;-64
2022/03/07 03:47:26;;;;;;;11.82;7.93;;;;;;;;;;5054626;28;20200;-64
2022/03/07 03:50:12;;;;;;;12.95;8.57;;;;;;;;;;5053329;28;20035;-64
2022/03/07 03:52:57;;;;;;;12.07;7.90;;;;;;;;;;5063014;28;20040;-63
2022/03/07 03:55:42;;;;;;;14.15;8.52;;;;;;;;;;5054017;28;20094;-62
2022/03/07 03:58:28;;;;;;;15.02;8.15;;;;;;;;;;5054793;28;20407;-69
2022/03/07 04:01:13;;;;;;;15.27;8.23;;;;;;;;;;5054151;28;20055;-70
2022/03/07 04:03:58;;;;;;;13.35;8.50;;;;;;;;;;5055462;28;20036;-73
2022/03/07 04:06:43;;;;;;;13.32;8.20;;;;;;;;;;5054507;28;20040;-72
2022/03/07 04:09:29;;;;;;;12.07;8.18;;;;;;;;;;5055005;28;20399;-72
2022/03/07 04:12:14;;;;;;;12.20;7.82;;;;;;;;;;5039720;28;20028;-63
2022/03/07 04:14:59;;;;;;;13.15;9.55;;;;;;;;;;5054229;28;20033;-62
2022/03/07 04:17:45;;;;;;;12.20;8.25;;;;;;;;;;5040127;28;20029;-61
2022/03/07 04:20:30;;;;;;;14.38;8.82;;;;;;;;;;5053634;28;20249;-62
2022/03/07 04:23:20;;;;;;;14.75;9.50;;;;;;;;;;5035181;28;20070;-61
2022/03/07 04:26:06;;;;;;;12.15;8.48;;;;;;;;;;5059032;28;20037;-61
2022/03/07 04:28:51;;;;;;;12.13;8.25;;;;;;;;;;5054669;28;20028;-62
2022/03/07 04:31:37;;;;;;;12.50;9.55;;;;;;;;;;5047661;28;20338;-70
2022/03/07 04:34:23;;;;;;;14.50;8.43;;;;;;;;;;5034694;28;20040;-70
2022/03/07 04:37:08;;;;;;;11.75;8.68;;;;;;;;;;5044733;28;20036;-71
2022/03/07 04:39:53;;;;;;;15.30;9.70;;;;;;;;;;5054713;28;20378;-70
2022/03/07 04:42:39;;;;;;;13.38;9.35;;;;;;;;;;5046063;28;20052;-71
2022/03/07 04:45:25;;;;;;;15.18;9.73;;;;;;;;;;5047224;28;20035;-71
2022/03/07 04:48:10;;;;;;;13.15;9.50;;;;;;;;;;5053133;28;20028;-71
2022/03/07 04:50:55;;;;;;;14.10;9.70;;;;;;;;;;5039630;28;20029;-62
2022/03/07 04:53:40;;;;;;;13.98;10.05;;;;;;;;;;5030615;28;20061;-67
2022/03/07 04:56:26;;;;;;;14.25;10.02;;;;;;;;;;5051736;28;20032;-67
2022/03/07 04:59:12;;;;;;;13.68;10.13;;;;;;;;;;5037211;28;20057;-64
2022/03/07 05:01:57;;;;;;;16.05;11.10;;;;;;;;;;5039506;28;20078;-66
2022/03/07 05:04:42;;;;;;;16.10;10.43;;;;;;;;;;5033856;28;20033;-67
2022/03/07 05:07:28;;;;;;;16.30;11.30;;;;;;;;;;5034718;28;20107;-63
2022/03/07 05:10:13;;;;;;;15.27;10.63;;;;;;;;;;5040676;28;20048;-66
2022/03/07 05:12:58;;;;;;;16.67;11.50;;;;;;;;;;5052588;28;20035;-65
2022/03/07 05:15:44;;;;;;;16.27;11.40;;;;;;;;;;5053040;28;20048;-63
2022/03/07 05:18:29;;;;;;;16.33;11.20;;;;;;;;;;5052425;28;20044;-63
2022/03/07 05:21:15;;;;;;;16.17;10.40;;;;;;;;;;5053496;28;20048;-62
2022/03/07 05:24:00;;;;;;;18.08;11.70;;;;;;;;;;5052432;28;20063;-65
2022/03/07 05:26:46;;;;;;;20.23;12.10;;;;;;;;;;5053219;28;20063;-66
2022/03/07 05:29:31;;;;;;;18.30;12.05;;;;;;;;;;5060135;28;20028;-64
2022/03/07 05:32:17;;;;;;;16.10;11.32;;;;;;;;;;5053195;28;20036;-66
2022/03/07 05:35:03;;;;;;;15.52;11.43;;;;;;;;;;5051507;28;20456;-67
2022/03/07 05:37:49;;;;;;;16.52;12.27;;;;;;;;;;5048880;28;20036;-69
2022/03/07 05:40:34;;;;;;;19.10;12.32;;;;;;;;;;5051654;28;20066;-66
2022/03/07 05:43:20;;;;;;;16.98;11.18;;;;;;;;;;5052652;28;20017;-67
2022/03/07 05:46:06;;;;;;;15.18;11.57;;;;;;;;;;5051618;28;20060;-70
2022/03/07 05:48:51;;;;;;;17.13;11.60;;;;;;;;;;5062507;28;20563;-61
2022/03/07 05:51:36;;;;;;;17.23;11.35;;;;;;;;;;5051719;28;20052;-63
2022/03/07 05:54:22;;;;;;;17.05;12.30;;;;;;;;;;5051648;28;20040;-63
2022/03/07 05:57:07;;;;;;;16.02;11.35;;;;;;;;;;5052816;28;20119;-64
2022/03/07 05:59:52;;;;;;;13.80;10.75;;;;;;;;;;5054521;28;20052;-61
2022/03/07 06:02:38;;;;;;;16.30;11.23;;;;;;;;;;5055932;28;20047;-67
2022/03/07 06:05:23;;;;;;;16.98;12.07;;;;;;;;;;5051367;28;20025;-68
2022/03/07 06:08:08;;;;;;;17.15;10.70;;;;;;;;;;5050896;28;20032;-71
2022/03/07 06:10:54;;;;;;;17.88;10.82;;;;;;;;;;5051618;28;20031;-70
2022/03/07 06:13:39;;;;;;;14.55;10.20;;;;;;;;;;5051965;28;20024;-71
2022/03/07 06:16:24;;;;;;;16.42;10.45;;;;;;;;;;5050979;28;20379;-70
2022/03/07 06:19:10;;;;;;;15.23;10.25;;;;;;;;;;5052817;28;20090;-71
2022/03/07 06:21:55;;;;;;;22.02;12.88;;;;;;;;;;5051617;28;20040;-67
2022/03/07 06:24:40;;;;;;;15.13;10.20;;;;;;;;;;5032687;28;20036;-63
2022/03/07 06:27:25;;;;;;;18.15;11.95;;;;;;;;;;5050937;28;20028;-61
2022/03/07 06:30:11;;;;;;;14.65;10.15;;;;;;;;;;5054776;28;20625;-63
2022/03/07 06:32:56;;;;;;;16.88;10.68;;;;;;;;;;5074101;28;20024;-65
2022/03/07 06:35:42;;;;;;;15.18;10.20;;;;;;;;;;5051561;28;20479;-63
2022/03/07 06:38:27;;;;;;;17.73;10.52;;;;;;;;;;5052270;28;20037;-63
2022/03/07 06:41:12;;;;;;;14.18;10.63;;;;;;;;;;5049346;28;20035;-63
2022/03/07 06:44:00;;;;;;;13.23;9.32;;;;;;;;;;5050393;28;20040;-62
2022/03/07 06:46:45;;;;;;;18.42;10.40;;;;;;;;;;5051741;28;20047;-63
2022/03/07 06:49:30;;;;;;;14.40;9.02;;;;;;;;;;5051942;28;20559;-62
2022/03/07 06:52:15;;;;;;;15.75;9.85;;;;;;;;;;5050402;28;20028;-63
2022/03/07 06:55:01;;;;;;;14.25;9.45;;;;;;;;;;5050590;28;20044;-63
2022/03/07 06:57:46;;;;;;;13.13;8.52;;;;;;;;;;5036244;28;20020;-66
2022/03/07 07:00:32;;;;;;;14.68;9.25;;;;;;;;;;5049941;28;20028;-66
2022/03/07 07:03:17;;;;;;;13.43;9.00;;;;;;;;;;5047920;28;20526;-61
2022/03/07 07:06:02;;;;;;;14.45;9.00;;;;;;;;;;5057290;28;20037;-63
2022/03/07 07:08:47;;;;;;;13.52;8.68;;;;;;;;;;5059509;28;20433;-61
2022/03/07 07:11:33;;;;;;;19.17;10.23;;;;;;;;;;5047933;28;20265;-60
2022/03/07 07:14:18;;;;;;;14.57;9.23;;;;;;;;;;5049618;28;20565;-62
2022/03/07 07:17:03;;;;;;;13.48;8.90;;;;;;;;;;5047527;28;20028;-61
2022/03/07 07:19:48;;;;;;;13.82;9.10;;;;;;;;;;5054513;28;20036;-68
2022/03/07 07:22:34;;;;;;;15.77;10.00;;;;;;;;;;5038788;28;20024;-66
2022/03/07 07:25:19;;;;;;;16.40;9.65;;;;;;;;;;5055113;28;20040;-66
2022/03/07 07:28:05;;;;;;;14.15;9.98;;;;;;;;;;5064914;28;20102;-65
2022/03/07 07:30:50;;;;;;;17.67;9.50;;;;;;;;;;5054107;28;20471;-65
2022/03/07 07:33:36;;;;;;;20.60;9.98;;;;;;;;;;5052765;28;20024;-65
2022/03/07 07:36:21;;;;;;;15.60;9.27;;;;;;;;;;5072839;28;20036;-60
2022/03/07 07:39:06;;;;;;;15.13;9.45;;;;;;;;;;5069429;28;20071;-71
2022/03/07 07:41:51;;;;;;;15.15;9.93;;;;;;;;;;5048568;28;20284;-70
2022/03/07 07:44:37;;;;;;;16.52;9.38;;;;;;;;;;5066504;28;20021;-72
2022/03/07 07:47:22;;;;;;;16.48;9.95;;;;;;;;;;5038790;28;20127;-70
2022/03/07 07:50:08;;;;;;;14.23;9.18;;;;;;;;;;5053231;28;20092;-71
2022/03/07 07:52:54;;;;;;;15.93;10.15;;;;;;;;;;5049319;28;20037;-61
2022/03/07 07:55:39;;;;;;;17.63;9.30;;;;;;;;;;5051290;28;20093;-62
2022/03/07 07:58:25;;;;;;;15.32;9.48;;;;;;;;;;5051784;28;20113;-61
2022/03/07 08:01:10;;;;;;;16.27;9.75;;;;;;;;;;5052187;28;20545;-64
2022/03/07 08:03:56;;;;;;;14.93;9.77;;;;;;;;;;5037109;28;20032;-63
2022/03/07 08:06:42;;;;;;;15.05;10.75;;;;;;;;;;5040662;28;20372;-62
2022/03/07 08:09:27;;;;;;;15.30;10.23;;;;;;;;;;5056346;28;20017;-65
2022/03/07 08:12:17;;;;;;;18.83;9.98;;;;;;;;;;5041769;28;20107;-71
2022/03/07 08:15:05;;;;;;;16.98;9.90;;;;;;;;;;5051962;28;20242;-63
2022/03/07 08:17:50;;;;;;;13.65;9.13;;;;;;;;;;5053560;28;20580;-64
2022/03/07 08:20:36;;;;;;;13.00;9.05;;;;;;;;;;5039159;28;20021;-62
2022/03/07 08:23:21;;;;;;;15.50;9.32;;;;;;;;;;5039096;28;20029;-63
2022/03/07 08:26:06;;;;;;;16.40;9.65;;;;;;;;;;5048606;28;20747;-60
2022/03/07 08:28:52;;;;;;;16.15;10.23;;;;;;;;;;5045615;28;20040;-60
2022/03/07 08:31:37;;;;;;;18.95;9.82;;;;;;;;;;5051035;28;20032;-62
2022/03/07 08:34:22;;;;;;;16.25;9.95;;;;;;;;;;5042511;28;20032;-61
2022/03/07 08:37:07;;;;;;;16.60;10.40;;;;;;;;;;5049435;28;20129;-59
2022/03/07 08:39:53;;;;;;;14.77;9.48;;;;;;;;;;5050107;28;20016;-60
2022/03/07 08:42:38;;;;;;;16.02;10.27;;;;;;;;;;5069266;28;20063;-61
2022/03/07 08:45:28;;;;;;;15.02;10.20;;;;;;;;;;5052234;28;20032;-61
2022/03/07 08:48:13;;;;;;;13.45;9.15;;;;;;;;;;5052733;28;20068;-66
2022/03/07 08:50:58;;;;;;;13.05;10.23;;;;;;;;;;5052285;28;20032;-62
2022/03/07 08:53:43;;;;;;;14.35;10.05;;;;;;;;;;5052364;28;20028;-61
2022/03/07 08:56:29;;;;;;;12.68;8.77;;;;;;;;;;5049524;28;20029;-63
2022/03/07 08:59:14;;;;;;;13.57;9.95;;;;;;;;;;5049635;28;20069;-62
2022/03/07 09:02:00;;;;;;;13.65;9.40;;;;;;;;;;5051267;28;20024;-62
2022/03/07 09:04:45;;;;;;;14.23;10.10;;;;;;;;;;5050870;28;20548;-63
2022/03/07 09:07:30;;;;;;;12.07;8.88;;;;;;;;;;5048563;28;20029;-63
2022/03/07 09:10:15;;;;;;;12.70;9.45;;;;;;;;;;5041758;28;20033;-67
2022/03/07 09:13:01;;;;;;;13.90;9.38;;;;;;;;;;5073290;28;20025;-63
2022/03/07 09:15:48;;;;;;;21.65;9.73;;;;;;;;;;5055652;28;20109;-65
2022/03/07 09:18:34;;;;;;;13.30;9.18;;;;;;;;;;5050725;28;20063;-65
2022/03/07 09:21:19;;;;;;;13.18;10.05;;;;;;;;;;5066129;28;20039;-64
2022/03/07 09:24:05;;;;;;;17.27;10.20;;;;;;;;;;5051098;28;20073;-66
2022/03/07 09:26:50;;;;;;;15.82;9.98;;;;;;;;;;5049024;28;20100;-64
2022/03/07 09:29:36;;;;;;;16.20;9.65;;;;;;;;;;5050251;28;20471;-61
2022/03/07 09:32:21;;;;;;;13.38;9.65;;;;;;;;;;5051531;28;20111;-63
2022/03/07 09:35:07;;;;;;;13.55;10.15;;;;;;;;;;5050299;28;20021;-62
2022/03/07 09:37:52;;;;;;;15.75;10.02;;;;;;;;;;5046151;28;20039;-63
2022/03/07 09:40:37;;;;;;;12.85;8.98;;;;;;;;;;5058005;28;20302;-61
2022/03/07 09:43:23;;;;;;;13.50;9.30;;;;;;;;;;5032814;28;20079;-70
2022/03/07 09:46:08;;;;;;;13.40;9.48;;;;;;;;;;5050751;28;20120;-71
2022/03/07 09:48:53;;;;;;;13.88;9.52;;;;;;;;;;5039991;28;20028;-68
2022/03/07 09:51:39;;;;;;;12.82;9.48;;;;;;;;;;5051146;28;20032;-70
2022/03/07 09:54:24;;;;;;;13.70;9.32;;;;;;;;;;5050511;28;20029;-69
2022/03/07 09:57:10;;;;;;;12.98;9.88;;;;;;;;;;5044786;28;20135;-69
2022/03/07 09:59:56;;;;;;;16.70;10.23;;;;;;;;;;5044859;28;20039;-68
2022/03/07 10:02:51;;;;;;;11.32;9.20;;;;;;;;;;5051362;28;20031;-70
2022/03/07 10:05:38;;;;;;;14.00;8.90;;;;;;;;;;5049808;28;20368;-65
2022/03/07 10:08:24;;;;;;;14.10;9.95;;;;;;;;;;5050952;28;20028;-63
2022/03/07 10:11:09;;;;;;;13.23;9.70;;;;;;;;;;5045669;28;20544;-63
2022/03/07 10:13:59;;;;;;;13.02;9.77;;;;;;;;;;5050631;28;20565;-64
2022/03/07 10:16:45;;;;;;;11.70;9.15;;;;;;;;;;5056377;28;20330;-62
2022/03/07 10:19:30;;;;;;;12.00;9.32;;;;;;;;;;5035261;28;20028;-62
2022/03/07 10:22:23;;;;;;;11.65;8.82;;;;;;;;;;5029795;28;20071;-63
2022/03/07 10:25:09;;;;;;;18.20;9.23;;;;;;;;;;5046759;28;20066;-63
2022/03/07 10:27:55;;;;;;;13.63;9.60;;;;;;;;;;5049570;28;20058;-64
2022/03/07 10:30:40;;;;;;;14.07;11.02;;;;;;;;;;5034919;28;20106;-64
2022/03/07 10:33:26;;;;;;;12.68;9.55;;;;;;;;;;5038114;28;20033;-63
2022/03/07 10:36:11;;;;;;;13.82;10.25;;;;;;;;;;5051038;28;20151;-62
2022/03/07 10:38:57;;;;;;;14.13;10.15;;;;;;;;;;5037339;28;20147;-63
2022/03/07 10:41:43;;;;;;;14.23;9.50;;;;;;;;;;5048525;28;20047;-63
2022/03/07 10:44:31;;;;;;;13.73;9.68;;;;;;;;;;5051651;28;20032;-61
2022/03/07 10:47:17;;;;;;;16.08;10.13;;;;;;;;;;5050326;28;20036;-63
2022/03/07 10:50:03;;;;;;;14.40;9.60;;;;;;;;;;5060202;28;20306;-60
2022/03/07 10:52:50;;;;;;;15.13;10.65;;;;;;;;;;5054058;28;20040;-62
2022/03/07 10:55:35;;;;;;;14.45;10.52;;;;;;;;;;5039158;28;20068;-60
2022/03/07 10:58:21;;;;;;;12.30;9.88;;;;;;;;;;5051217;28;20036;-65
2022/03/07 11:01:06;;;;;;;13.90;9.52;;;;;;;;;;5053317;28;20099;-71
2022/03/07 11:03:51;;;;;;;12.60;9.95;;;;;;;;;;5054515;28;20028;-70
2022/03/07 11:06:37;;;;;;;13.80;10.35;;;;;;;;;;5064753;28;20036;-69
2022/03/07 11:09:23;;;;;;;15.20;10.40;;;;;;;;;;5054270;28;20036;-68
2022/03/07 11:12:12;;;;;;;14.38;10.48;;;;;;;;;;5053809;28;20063;-68
2022/03/07 11:14:58;;;;;;;12.20;9.10;;;;;;;;;;5053830;28;20043;-70
2022/03/07 11:17:44;;;;;;;14.50;10.27;;;;;;;;;;5040145;28;20395;-71
2022/03/07 11:20:30;;;;;;;13.73;9.35;;;;;;;;;;5062903;28;20030;-66
2022/03/07 11:23:21;;;;;;;14.30;10.00;;;;;;;;;;5069027;28;20115;-68
2022/03/07 11:26:08;;;;;;;13.57;10.15;;;;;;;;;;5049866;28;20064;-65
2022/03/07 11:28:57;;;;;;;13.35;9.43;;;;;;;;;;5052616;28;20442;-64
2022/03/07 11:31:43;;;;;;;14.35;10.38;;;;;;;;;;5054450;28;20249;-64
2022/03/07 11:34:28;;;;;;;16.55;10.00;;;;;;;;;;5052466;28;20442;-68
2022/03/07 11:37:17;;;;;;;16.20;10.68;;;;;;;;;;5054088;28;20024;-72
2022/03/07 11:40:14;;;;;;;14.02;10.15;;;;;;;;;;5039627;28;20032;-73
2022/03/07 11:43:06;;;;;;;15.23;11.15;;;;;;;;;;5053047;28;20033;-70
2022/03/07 11:45:52;;;;;;;16.70;10.40;;;;;;;;;;5039540;28;20039;-73
2022/03/07 11:48:47;;;;;;;14.00;10.63;;;;;;;;;;5053147;28;20093;-73
2022/03/07 11:51:35;;;;;;;15.32;10.10;;;;;;;;;;5038961;28;20031;-73
2022/03/07 11:54:21;;;;;;;15.38;10.13;;;;;;;;;;5040266;28;20032;-61
2022/03/07 11:57:07;;;;;;;13.90;9.90;;;;;;;;;;5064906;28;20027;-61
2022/03/07 11:59:52;;;;;;;18.33;11.57;;;;;;;;;;5050553;28;20029;-63
2022/03/07 12:02:39;;;;;;;14.90;10.25;;;;;;;;;;5051695;28;20117;-62
2022/03/07 12:05:32;;;;;;;19.20;10.05;;;;;;;;;;5050866;28;20044;-62
2022/03/07 12:08:18;;;;;;;13.85;9.40;;;;;;;;;;5050726;28;20490;-64
2022/03/07 12:11:04;;;;;;;14.60;8.98;;;;;;;;;;5053881;28;20099;-61
2022/03/07 12:13:50;;;;;;;15.38;10.38;;;;;;;;;;5053055;28;20064;-63
2022/03/07 12:16:37;;;;;;;14.60;10.15;;;;;;;;;;5051123;28;20391;-65
2022/03/07 12:19:22;;;;;;;14.93;10.10;;;;;;;;;;5048773;28;20060;-61
2022/03/07 12:22:15;;;;;;;16.10;10.38;;;;;;;;;;5053316;28;20479;-60
2022/03/07 12:25:08;;;;;;;15.55;11.30;;;;;;;;;;5057252;28;20028;-63
2022/03/07 12:27:57;;;;;;;15.40;9.77;;;;;;;;;;5052694;28;20040;-64
2022/03/07 12:30:42;;;;;;;13.50;9.68;;;;;;;;;;5038159;28;20485;-62
2022/03/07 12:33:27;;;;;;;14.95;10.02;;;;;;;;;;5053171;28;20031;-63
2022/03/07 12:36:14;;;;;;;14.02;10.20;;;;;;;;;;5049036;28;20065;-63
2022/03/07 12:39:00;;;;;;;17.02;9.77;;;;;;;;;;5052611;28;20112;-63
2022/03/07 12:41:45;;;;;;;14.50;10.00;;;;;;;;;;5048856;28;20043;-63
2022/03/07 12:44:31;;;;;;;15.15;9.25;;;;;;;;;;5052203;28;20337;-59
2022/03/07 12:47:19;;;;;;;12.90;9.23;;;;;;;;;;5050316;28;20062;-68
2022/03/07 12:50:06;;;;;;;13.88;9.00;;;;;;;;;;5038093;28;20495;-60
2022/03/07 12:52:51;;;;;;;13.38;9.75;;;;;;;;;;5038584;28;20016;-60
2022/03/07 12:55:36;;;;;;;11.70;8.98;;;;;;;;;;5051435;28;20094;-60
2022/03/07 12:58:22;;;;;;;14.05;9.52;;;;;;;;;;5061261;28;20044;-60
2022/03/07 13:01:10;;;;;;;14.82;9.43;;;;;;;;;;5034384;28;20039;-60
2022/03/07 13:03:56;;;;;;;14.48;10.02;;;;;;;;;;5051717;28;20086;-60
2022/03/07 13:06:45;;;;;;;13.38;10.13;;;;;;;;;;5050557;28;20081;-60
2022/03/07 13:09:31;;;;;;;15.30;9.38;;;;;;;;;;5049322;28;20040;-71
2022/03/07 13:12:16;;;;;;;12.50;9.55;;;;;;;;;;5038363;28;20078;-70
2022/03/07 13:15:03;;;;;;;14.18;9.45;;;;;;;;;;5051893;28;20036;-68
2022/03/07 13:18:06;;;;;;;13.55;9.23;;;;;;;;;;5049785;28;20475;-67
2022/03/07 13:20:52;;;;;;;11.95;9.25;;;;;;;;;;5035284;28;20155;-72
2022/03/07 13:23:37;;;;;;;12.52;9.43;;;;;;;;;;5045942;28;20085;-71
2022/03/07 13:26:24;;;;;;;13.07;9.80;;;;;;;;;;5033786;28;20135;-74
2022/03/07 13:29:13;;;;;;;19.60;9.43;;;;;;;;;;5054487;28;20347;-62
2022/03/07 13:32:05;;;;;;;13.13;9.27;;;;;;;;;;5040453;28;20043;-62
2022/03/07 13:34:52;;;;;;;13.98;9.98;;;;;;;;;;5051426;28;20048;-62
2022/03/07 13:37:42;;;;;;;15.52;10.40;;;;;;;;;;5045507;28;20043;-62
2022/03/07 13:40:33;;;;;;;13.68;9.98;;;;;;;;;;5050957;28;20035;-61
2022/03/07 13:43:26;;;;;;;12.60;9.55;;;;;;;;;;5051144;28;20035;-67
2022/03/07 13:46:16;;;;;;;14.75;9.20;;;;;;;;;;5038691;28;20113;-71
2022/03/07 13:49:04;;;;;;;12.43;9.30;;;;;;;;;;5050228;28;20630;-69
2022/03/07 13:51:50;;;;;;;15.20;10.48;;;;;;;;;;5053692;28;20111;-68
2022/03/07 13:54:38;;;;;;;16.33;9.93;;;;;;;;;;5052924;28;20024;-69
2022/03/07 13:57:34;;;;;;;15.55;9.48;;;;;;;;;;5050618;28;20409;-69
2022/03/07 14:00:20;;;;;;;13.23;10.20;;;;;;;;;;5053032;28;20335;-71
2022/03/07 14:03:07;;;;;;;19.38;10.48;;;;;;;;;;5047043;28;20032;-62
2022/03/07 14:05:54;;;;;;;13.52;9.25;;;;;;;;;;5050285;28;20029;-72
2022/03/07 14:08:41;;;;;;;12.98;9.70;;;;;;;;;;5045727;28;20075;-70
2022/03/07 14:11:27;;;;;;;13.25;9.65;;;;;;;;;;5048844;28;20111;-71
2022/03/07 14:14:17;;;;;;;13.93;10.60;;;;;;;;;;5049237;28;20239;-69
2022/03/07 14:17:03;;;;;;;14.63;10.00;;;;;;;;;;5048686;28;20040;-70
2022/03/07 14:19:48;;;;;;;16.42;10.80;;;;;;;;;;5049555;28;20048;-70
2022/03/07 14:22:34;;;;;;;16.55;10.57;;;;;;;;;;5051758;28;20024;-68
2022/03/07 14:25:19;;;;;;;15.88;11.32;;;;;;;;;;5045014;28;20021;-70
2022/03/07 14:28:05;;;;;;;17.17;10.20;;;;;;;;;;5050891;28;20032;-69
2022/03/07 14:30:51;;;;;;;13.07;9.82;;;;;;;;;;5053408;28;20439;-70
2022/03/07 14:33:36;;;;;;;14.23;9.30;;;;;;;;;;5051186;28;20032;-69
2022/03/07 14:36:21;;;;;;;13.77;9.57;;;;;;;;;;5051526;28;20036;-70
2022/03/07 14:39:07;;;;;;;13.63;10.13;;;;;;;;;;5065749;28;20032;-61
2022/03/07 14:41:52;;;;;;;12.70;9.68;;;;;;;;;;5050570;28;20029;-67
2022/03/07 14:44:38;;;;;;;11.48;9.57;;;;;;;;;;5028515;28;20052;-64
2022/03/07 14:47:23;;;;;;;14.07;10.05;;;;;;;;;;5049725;28;20364;-64
2022/03/07 14:50:08;;;;;;;14.80;9.88;;;;;;;;;;5046492;28;20050;-64
2022/03/07 14:52:54;;;;;;;14.77;10.38;;;;;;;;;;5049657;28;20487;-67
2022/03/07 14:55:39;;;;;;;13.23;10.10;;;;;;;;;;5049412;28;20075;-66
2022/03/07 14:58:25;;;;;;;13.88;10.23;;;;;;;;;;5050305;28;20090;-68
2022/03/07 15:01:10;;;;;;;13.38;10.45;;;;;;;;;;5043309;28;20039;-64
2022/03/07 15:03:55;;;;;;;15.48;10.20;;;;;;;;;;5055277;28;20055;-65
2022/03/07 15:06:40;;;;;;;15.85;10.45;;;;;;;;;;5053974;28;20082;-65
2022/03/07 15:09:26;;;;;;;15.68;10.00;;;;;;;;;;5028150;28;20040;-63
2022/03/07 15:12:11;;;;;;;13.55;10.00;;;;;;;;;;5049639;28;20029;-64
2022/03/07 15:14:56;;;;;;;13.80;9.93;;;;;;;;;;5045383;28;20364;-68
2022/03/07 15:17:42;;;;;;;13.30;10.02;;;;;;;;;;5048790;28;20024;-69
2022/03/07 15:20:28;;;;;;;14.75;10.13;;;;;;;;;;5049401;28;20055;-69
2022/03/07 15:23:17;;;;;;;15.85;10.82;;;;;;;;;;5045903;28;20417;-69
2022/03/07 15:26:02;;;;;;;16.02;10.88;;;;;;;;;;5055280;28;20037;-68
2022/03/07 15:28:48;;;;;;;14.07;11.05;;;;;;;;;;5049884;28;20055;-67
2022/03/07 15:31:33;;;;;;;16.95;10.45;;;;;;;;;;5031695;28;20039;-68
2022/03/07 15:34:19;;;;;;;16.00;11.13;;;;;;;;;;5048191;28;20156;-66
2022/03/07 15:37:04;;;;;;;14.25;10.57;;;;;;;;;;5059026;28;20051;-65
2022/03/07 15:39:50;;;;;;;17.88;10.75;;;;;;;;;;5054089;28;20493;-64
2022/03/07 15:42:36;;;;;;;17.60;10.85;;;;;;;;;;5050518;28;20479;-62
2022/03/07 15:45:21;;;;;;;15.50;10.70;;;;;;;;;;5051190;28;20384;-64
2022/03/07 15:48:07;;;;;;;15.80;12.02;;;;;;;;;;5052148;28;20028;-63
2022/03/07 15:50:58;;;;;;;14.63;11.05;;;;;;;;;;5053079;28;20379;-61
2022/03/07 15:53:44;;;;;;;16.45;12.10;;;;;;;;;;5052926;28;20073;-63
2022/03/07 15:56:31;;;;;;;17.17;11.18;;;;;;;;;;5054099;28;20379;-63
2022/03/07 15:59:20;;;;;;;16.55;11.15;;;;;;;;;;5053308;28;20060;-62
2022/03/07 16:02:05;;;;;;;19.67;11.63;;;;;;;;;;5052282;28;20570;-64
2022/03/07 16:04:51;;;;;;;16.40;11.75;;;;;;;;;;5048879;28;20037;-63
2022/03/07 16:07:36;;;;;;;19.55;12.13;;;;;;;;;;5053300;28;20063;-63
2022/03/07 16:10:21;;;;;;;15.70;11.35;;;;;;;;;;5058460;28;20077;-61
2022/03/07 16:13:17;;;;;;;16.40;11.57;;;;;;;;;;5051539;28;20036;-68
2022/03/07 16:16:02;;;;;;;18.95;11.25;;;;;;;;;;5064337;28;20036;-66